createdAt,value
2018-12-12T00:01:18.081Z,9.60
2018-12-12T00:03:45.595Z,9.70
2018-12-12T00:06:13.027Z,9.70
2018-12-12T00:08:40.618Z,9.70
2018-12-12T00:11:08.098Z,9.70
2018-12-12T00:13:35.518Z,9.60
2018-12-12T00:16:02.947Z,9.70
2018-12-12T00:18:30.438Z,9.60
2018-12-12T00:20:57.902Z,9.30
2018-12-12T00:23:25.330Z,9.50
2018-12-12T00:25:52.742Z,9.50
2018-12-12T00:28:20.202Z,9.60
2018-12-12T00:30:47.722Z,9.50
2018-12-12T00:33:15.290Z,9.40
2018-12-12T00:35:42.723Z,9.00
2018-12-12T00:38:10.133Z,9.00
2018-12-12T00:40:37.560Z,9.10
2018-12-12T00:43:05.059Z,9.20
2018-12-12T00:45:32.588Z,9.20
2018-12-12T00:48:00.039Z,9.30
2018-12-12T00:50:27.492Z,9.30
2018-12-12T00:52:54.953Z,9.30
2018-12-12T00:55:22.382Z,9.30
2018-12-12T00:57:50.054Z,9.40
2018-12-12T01:00:17.527Z,9.50
2018-12-12T01:02:44.989Z,9.50
2018-12-12T01:05:12.453Z,9.50
2018-12-12T01:07:39.974Z,9.50
2018-12-12T01:10:07.466Z,9.50
2018-12-12T01:12:35.227Z,9.50
2018-12-12T01:15:02.707Z,9.60
2018-12-12T01:17:30.223Z,9.60
2018-12-12T01:19:57.665Z,9.60
2018-12-12T01:22:25.099Z,9.50
2018-12-12T01:24:52.545Z,9.50
2018-12-12T01:27:20.070Z,9.50
2018-12-12T01:29:47.580Z,9.40
2018-12-12T01:32:15.034Z,9.40
2018-12-12T01:34:42.551Z,9.50
2018-12-12T01:37:10.101Z,9.60
2018-12-12T01:39:37.658Z,9.60
2018-12-12T01:42:05.175Z,9.60
2018-12-12T01:44:32.600Z,9.60
2018-12-12T01:47:00.047Z,9.60
2018-12-12T01:49:27.513Z,9.50
2018-12-12T01:51:54.987Z,9.50
2018-12-12T01:54:22.449Z,9.60
2018-12-12T01:56:49.893Z,9.60
2018-12-12T01:59:17.313Z,9.60
2018-12-12T02:01:44.900Z,9.60
2018-12-12T02:04:12.304Z,9.60
2018-12-12T02:09:19.044Z,9.50
2018-12-12T02:11:46.541Z,9.40
2018-12-12T02:14:13.961Z,9.40
2018-12-12T02:16:41.394Z,9.30
2018-12-12T02:19:08.889Z,9.30
2018-12-12T02:21:36.318Z,9.20
2018-12-12T02:24:03.802Z,9.30
2018-12-12T02:26:31.240Z,9.40
2018-12-12T02:28:58.697Z,9.30
2018-12-12T02:31:26.242Z,9.00
2018-12-12T02:33:53.786Z,8.90
2018-12-12T02:36:21.222Z,9.10
2018-12-12T02:38:48.684Z,9.10
2018-12-12T02:41:16.194Z,8.90
2018-12-12T02:43:43.630Z,8.90
2018-12-12T02:46:11.067Z,9.10
2018-12-12T02:48:38.506Z,9.20
2018-12-12T02:51:06.018Z,9.40
2018-12-12T02:53:33.453Z,9.40
2018-12-12T02:56:00.969Z,9.50
2018-12-12T02:58:28.529Z,9.50
2018-12-12T03:00:56.046Z,9.50
2018-12-12T03:03:23.463Z,9.50
2018-12-12T03:05:50.877Z,9.40
2018-12-12T03:08:18.313Z,9.30
2018-12-12T03:10:45.733Z,9.20
2018-12-12T03:13:13.153Z,9.20
2018-12-12T03:15:40.666Z,9.30
2018-12-12T03:18:08.088Z,9.40
2018-12-12T03:20:35.545Z,9.40
2018-12-12T03:23:03.194Z,9.40
2018-12-12T03:25:30.630Z,9.20
2018-12-12T03:27:58.083Z,9.20
2018-12-12T03:30:25.515Z,9.20
2018-12-12T03:32:53.113Z,9.00
2018-12-12T03:35:20.545Z,9.00
2018-12-12T03:37:47.982Z,9.10
2018-12-12T03:40:15.475Z,9.20
2018-12-12T03:42:43.219Z,9.20
2018-12-12T03:45:10.710Z,9.20
2018-12-12T03:47:38.277Z,9.30
2018-12-12T03:50:05.822Z,9.30
2018-12-12T03:52:33.285Z,9.20
2018-12-12T03:55:00.752Z,9.30
2018-12-12T03:57:28.200Z,9.30
2018-12-12T03:59:55.705Z,9.30
2018-12-12T04:02:23.140Z,9.40
2018-12-12T04:04:50.675Z,9.30
2018-12-12T04:07:23.878Z,9.30
2018-12-12T04:09:51.306Z,9.20
2018-12-12T04:12:18.797Z,9.20
2018-12-12T04:14:46.227Z,9.20
2018-12-12T04:17:13.652Z,9.20
2018-12-12T04:19:41.091Z,9.20
2018-12-12T04:22:08.576Z,9.20
2018-12-12T04:24:36.025Z,9.20
2018-12-12T04:27:03.530Z,9.20
2018-12-12T04:29:30.962Z,9.20
2018-12-12T04:31:58.439Z,9.20
2018-12-12T04:34:25.860Z,9.10
2018-12-12T04:36:53.370Z,9.00
2018-12-12T04:39:20.800Z,9.00
2018-12-12T04:41:48.234Z,9.10
2018-12-12T04:44:15.657Z,9.10
2018-12-12T04:46:43.106Z,9.00
2018-12-12T04:49:10.537Z,9.00
2018-12-12T04:51:37.966Z,8.90
2018-12-12T04:54:05.460Z,8.80
2018-12-12T04:56:32.927Z,8.80
2018-12-12T04:59:00.546Z,8.70
2018-12-12T05:01:27.965Z,8.70
2018-12-12T05:03:55.398Z,8.70
2018-12-12T05:06:22.898Z,8.60
2018-12-12T05:08:50.410Z,8.60
2018-12-12T05:11:17.832Z,8.60
2018-12-12T05:13:45.288Z,8.60
2018-12-12T05:16:12.787Z,8.60
2018-12-12T05:18:40.238Z,8.60
2018-12-12T05:21:07.675Z,8.60
2018-12-12T05:23:35.726Z,8.70
2018-12-12T05:26:03.182Z,8.70
2018-12-12T05:28:30.669Z,8.70
2018-12-12T05:30:58.330Z,8.70
2018-12-12T05:33:25.792Z,8.70
2018-12-12T05:35:53.264Z,8.70
2018-12-12T05:38:20.698Z,8.80
2018-12-12T05:40:48.171Z,8.70
2018-12-12T05:43:15.642Z,8.80
2018-12-12T05:45:43.301Z,8.70
2018-12-12T05:48:10.776Z,8.70
2018-12-12T05:50:38.212Z,8.80
2018-12-12T05:53:05.671Z,8.80
2018-12-12T05:55:33.142Z,8.80
2018-12-12T05:58:00.570Z,8.90
2018-12-12T06:00:28.042Z,8.90
2018-12-12T06:02:55.502Z,8.80
2018-12-12T06:05:22.943Z,8.90
2018-12-12T06:07:50.371Z,8.90
2018-12-12T06:10:17.790Z,8.90
2018-12-12T06:12:45.244Z,8.90
2018-12-12T06:15:12.799Z,8.90
2018-12-12T06:17:40.358Z,8.90
2018-12-12T06:20:08.187Z,8.90
2018-12-12T06:22:37.752Z,8.90
2018-12-12T06:25:05.514Z,8.90
2018-12-12T06:27:32.932Z,8.90
2018-12-12T06:30:00.415Z,8.90
2018-12-12T06:32:27.858Z,8.90
2018-12-12T06:34:55.306Z,8.90
2018-12-12T06:37:22.779Z,9.00
2018-12-12T06:39:50.250Z,8.90
2018-12-12T06:42:17.690Z,9.00
2018-12-12T06:44:45.155Z,8.90
2018-12-12T06:47:12.583Z,8.90
2018-12-12T06:49:40.078Z,8.90
2018-12-12T06:52:07.628Z,8.90
2018-12-12T06:54:35.821Z,8.90
2018-12-12T06:57:03.295Z,8.90
2018-12-12T06:59:30.719Z,8.80
2018-12-12T07:01:58.231Z,8.80
2018-12-12T07:04:25.689Z,8.80
2018-12-12T07:06:53.194Z,8.90
2018-12-12T07:09:20.630Z,8.90
2018-12-12T07:11:48.088Z,8.90
2018-12-12T07:14:15.589Z,8.80
2018-12-12T07:16:43.005Z,8.80
2018-12-12T07:19:10.479Z,8.80
2018-12-12T07:21:37.937Z,8.90
2018-12-12T07:24:05.422Z,8.90
2018-12-12T07:26:32.856Z,8.90
2018-12-12T07:29:00.288Z,8.90
2018-12-12T07:31:27.702Z,8.90
2018-12-12T07:34:00.685Z,9.00
2018-12-12T07:36:24.829Z,9.00
2018-12-12T07:38:52.230Z,9.00
2018-12-12T07:41:19.750Z,9.00
2018-12-12T07:43:47.196Z,9.00
2018-12-12T07:46:14.746Z,9.00
2018-12-12T07:48:42.180Z,9.00
2018-12-12T07:51:09.614Z,9.00
2018-12-12T07:53:37.143Z,9.00
2018-12-12T07:56:04.613Z,9.00
2018-12-12T07:58:32.045Z,9.00
2018-12-12T08:00:59.494Z,9.00
2018-12-12T08:03:26.974Z,9.10
2018-12-12T08:05:54.392Z,9.10
2018-12-12T08:08:21.886Z,9.10
2018-12-12T08:10:49.354Z,9.10
2018-12-12T08:13:16.806Z,9.10
2018-12-12T08:15:44.261Z,9.20
2018-12-12T08:18:11.847Z,9.10
2018-12-12T08:20:39.284Z,9.20
2018-12-12T08:23:07.138Z,9.20
2018-12-12T08:25:34.940Z,9.20
2018-12-12T08:28:02.414Z,9.30
2018-12-12T08:30:29.930Z,9.30
2018-12-12T08:32:57.366Z,9.30
2018-12-12T08:35:24.900Z,9.30
2018-12-12T08:37:52.332Z,9.30
2018-12-12T08:40:19.757Z,9.30
2018-12-12T08:42:47.198Z,9.40
2018-12-12T08:45:14.644Z,9.40
2018-12-12T08:47:42.137Z,9.50
2018-12-12T08:50:09.703Z,9.50
2018-12-12T08:52:37.153Z,9.50
2018-12-12T08:55:05.021Z,9.60
2018-12-12T08:57:32.479Z,9.60
2018-12-12T08:59:59.914Z,9.60
2018-12-12T09:02:27.370Z,9.60
2018-12-12T09:04:54.797Z,9.60
2018-12-12T09:07:22.218Z,9.60
2018-12-12T09:09:49.644Z,9.70
2018-12-12T09:12:17.118Z,9.80
2018-12-12T09:14:44.655Z,9.90
2018-12-12T09:17:12.134Z,9.90
2018-12-12T09:19:39.558Z,9.90
2018-12-12T09:22:06.973Z,9.90
2018-12-12T09:24:34.410Z,9.90
2018-12-12T09:27:01.881Z,10.00
2018-12-12T09:29:29.387Z,10.10
2018-12-12T09:31:56.823Z,10.00
2018-12-12T09:34:24.347Z,10.00
2018-12-12T09:36:51.782Z,10.10
2018-12-12T09:39:19.223Z,10.10
2018-12-12T09:41:46.682Z,10.20
2018-12-12T09:44:14.145Z,10.30
2018-12-12T09:46:41.641Z,10.30
2018-12-12T09:49:09.170Z,10.20
2018-12-12T09:51:36.746Z,10.30
2018-12-12T09:54:04.175Z,10.30
2018-12-12T09:56:31.667Z,10.30
2018-12-12T09:58:59.122Z,10.30
2018-12-12T10:01:26.575Z,10.30
2018-12-12T10:03:54.041Z,10.30
2018-12-12T10:06:21.502Z,10.30
2018-12-12T10:08:48.958Z,10.40
2018-12-12T10:11:16.390Z,10.50
2018-12-12T10:13:43.813Z,10.50
2018-12-12T10:16:11.329Z,10.50
2018-12-12T10:18:38.788Z,10.60
2018-12-12T10:21:06.231Z,10.60
2018-12-12T10:23:33.705Z,10.70
2018-12-12T10:26:01.151Z,10.70
2018-12-12T10:28:28.589Z,10.70
2018-12-12T10:30:56.071Z,10.70
2018-12-12T10:33:23.505Z,10.60
2018-12-12T10:35:50.973Z,10.60
2018-12-12T10:38:18.428Z,10.70
2018-12-12T10:40:45.915Z,10.70
2018-12-12T10:43:13.353Z,12.10
2018-12-12T10:45:40.853Z,10.70
2018-12-12T10:48:08.386Z,10.70
2018-12-12T10:50:36.353Z,10.70
2018-12-12T10:53:03.818Z,10.60
2018-12-12T10:55:31.267Z,10.70
2018-12-12T10:57:58.732Z,10.50
2018-12-12T11:00:26.182Z,10.50
2018-12-12T11:02:59.324Z,10.60
2018-12-12T11:05:27.032Z,10.60
2018-12-12T11:07:54.470Z,10.70
2018-12-12T11:10:21.950Z,10.80
2018-12-12T11:12:49.387Z,10.90
2018-12-12T11:15:16.875Z,11.10
2018-12-12T11:17:44.318Z,11.20
2018-12-12T11:20:11.797Z,11.20
2018-12-12T11:22:39.289Z,11.20
2018-12-12T11:25:06.782Z,11.20
2018-12-12T11:27:34.234Z,11.20
2018-12-12T11:30:01.680Z,11.10
2018-12-12T11:32:29.184Z,11.00
2018-12-12T11:34:56.600Z,11.00
2018-12-12T11:37:24.017Z,11.10
2018-12-12T11:39:51.484Z,11.20
2018-12-12T11:42:18.913Z,11.30
2018-12-12T11:44:46.347Z,11.40
2018-12-12T11:47:13.814Z,11.30
2018-12-12T11:49:41.266Z,11.40
2018-12-12T11:52:08.708Z,11.20
2018-12-12T11:54:36.586Z,11.00
2018-12-12T11:57:04.095Z,10.80
2018-12-12T11:59:31.542Z,11.00
2018-12-12T12:01:58.966Z,10.90
2018-12-12T12:04:26.411Z,11.00
2018-12-12T12:06:53.841Z,11.00
2018-12-12T12:09:21.346Z,11.10
2018-12-12T12:11:48.771Z,11.00
2018-12-12T12:14:16.262Z,11.00
2018-12-12T12:16:43.746Z,10.90
2018-12-12T12:19:11.200Z,10.90
2018-12-12T12:21:38.621Z,11.00
2018-12-12T12:24:06.201Z,11.00
2018-12-12T12:26:33.690Z,11.10
2018-12-12T12:29:01.374Z,11.20
2018-12-12T12:31:28.852Z,11.10
2018-12-12T12:33:56.285Z,11.10
2018-12-12T12:36:23.772Z,11.10
2018-12-12T12:38:51.277Z,11.00
2018-12-12T12:41:18.706Z,11.10
2018-12-12T12:43:46.132Z,11.20
2018-12-12T12:46:13.594Z,11.40
2018-12-12T12:48:41.022Z,11.70
2018-12-12T12:51:08.526Z,11.60
2018-12-12T12:53:36.630Z,11.60
2018-12-12T12:56:04.079Z,11.60
2018-12-12T12:58:31.638Z,11.60
2018-12-12T13:00:59.086Z,11.50
2018-12-12T13:03:26.511Z,11.30
2018-12-12T13:05:53.938Z,11.40
2018-12-12T13:08:21.365Z,11.40
2018-12-12T13:10:48.834Z,11.50
2018-12-12T13:13:16.652Z,11.50
2018-12-12T13:15:44.545Z,11.60
2018-12-12T13:18:12.021Z,11.60
2018-12-12T13:20:39.491Z,11.70
2018-12-12T13:23:06.913Z,11.70
2018-12-12T13:25:34.478Z,11.60
2018-12-12T13:28:01.911Z,11.50
2018-12-12T13:30:29.443Z,11.50
2018-12-12T13:32:56.865Z,11.50
2018-12-12T13:35:24.327Z,11.50
2018-12-12T13:37:51.792Z,11.50
2018-12-12T13:40:19.233Z,11.40
2018-12-12T13:42:46.670Z,11.40
2018-12-12T13:45:14.146Z,11.20
2018-12-12T13:47:41.574Z,11.10
2018-12-12T13:50:09.053Z,11.00
2018-12-12T13:52:36.817Z,10.90
2018-12-12T13:55:04.592Z,10.80
2018-12-12T13:57:32.093Z,10.80
2018-12-12T13:59:59.572Z,10.70
2018-12-12T14:02:27.001Z,10.70
2018-12-12T14:04:54.427Z,10.70
2018-12-12T14:07:21.870Z,10.70
2018-12-12T14:09:49.300Z,10.60
2018-12-12T14:12:17.499Z,10.40
2018-12-12T14:14:45.709Z,10.30
2018-12-12T14:17:13.339Z,10.20
2018-12-12T14:19:40.789Z,10.20
2018-12-12T14:22:08.271Z,10.10
2018-12-12T14:24:35.707Z,10.10
2018-12-12T14:27:03.171Z,10.10
2018-12-12T14:29:30.624Z,10.00
2018-12-12T14:31:58.094Z,10.00
2018-12-12T14:34:29.185Z,9.80
2018-12-12T14:36:55.152Z,9.80
2018-12-12T14:39:22.608Z,9.80
2018-12-12T14:41:50.045Z,9.70
2018-12-12T14:44:17.484Z,9.70
2018-12-12T14:46:44.884Z,9.60
2018-12-12T14:49:12.310Z,9.50
2018-12-12T14:51:39.737Z,9.50
2018-12-12T14:54:07.254Z,9.40
2018-12-12T14:56:34.696Z,9.40
2018-12-12T14:59:02.149Z,9.30
2018-12-12T15:01:29.625Z,9.20
2018-12-12T15:03:57.046Z,9.10
2018-12-12T15:06:24.483Z,9.10
2018-12-12T15:08:51.907Z,9.00
2018-12-12T15:11:19.481Z,9.00
2018-12-12T15:13:46.892Z,8.90
2018-12-12T15:16:14.334Z,8.80
2018-12-12T15:18:41.830Z,8.70
2018-12-12T15:21:09.288Z,8.50
2018-12-12T15:23:36.957Z,8.50
2018-12-12T15:26:04.391Z,8.60
2018-12-12T15:28:31.814Z,8.50
2018-12-12T15:30:59.326Z,8.50
2018-12-12T15:33:26.785Z,8.50
2018-12-12T15:35:54.219Z,8.30
2018-12-12T15:38:21.706Z,8.30
2018-12-12T15:40:49.182Z,8.30
2018-12-12T15:43:16.610Z,8.80
2018-12-12T15:45:44.026Z,8.20
2018-12-12T15:48:11.468Z,8.10
2018-12-12T15:50:38.914Z,8.00
2018-12-12T15:53:06.350Z,8.00
2018-12-12T15:55:33.874Z,8.00
2018-12-12T15:58:01.360Z,7.90
2018-12-12T16:00:29.006Z,7.90
2018-12-12T16:02:56.658Z,7.80
2018-12-12T16:05:24.070Z,7.80
2018-12-12T16:07:51.599Z,7.80
2018-12-12T16:10:19.049Z,7.90
2018-12-12T16:12:46.481Z,7.90
2018-12-12T16:15:13.929Z,8.00
2018-12-12T16:17:41.430Z,8.20
2018-12-12T16:20:08.989Z,8.30
2018-12-12T16:22:37.167Z,8.40
2018-12-12T16:25:04.725Z,8.50
2018-12-12T16:27:32.174Z,8.50
2018-12-12T16:29:59.590Z,8.60
2018-12-12T16:32:27.047Z,8.70
2018-12-12T16:34:55.861Z,8.70
2018-12-12T16:37:23.362Z,8.80
2018-12-12T16:39:50.788Z,8.90
2018-12-12T16:42:18.259Z,8.90
2018-12-12T16:44:45.678Z,9.00
2018-12-12T16:47:13.153Z,9.00
2018-12-12T16:49:40.572Z,9.00
2018-12-12T16:52:08.002Z,9.10
2018-12-12T16:54:35.438Z,9.10
2018-12-12T16:57:02.887Z,9.10
2018-12-12T16:59:30.308Z,9.20
2018-12-12T17:01:57.729Z,9.20
2018-12-12T17:04:25.191Z,9.10
2018-12-12T17:06:52.734Z,9.10
2018-12-12T17:09:20.181Z,9.10
2018-12-12T17:11:47.659Z,9.10
2018-12-12T17:14:15.110Z,9.10
2018-12-12T17:16:42.535Z,9.00
2018-12-12T17:19:09.964Z,9.00
2018-12-12T17:21:37.480Z,9.10
2018-12-12T17:24:04.927Z,9.10
2018-12-12T17:26:32.394Z,9.20
2018-12-12T17:29:00.162Z,9.20
2018-12-12T17:31:27.765Z,9.20
2018-12-12T17:33:55.298Z,9.20
2018-12-12T17:36:22.709Z,9.20
2018-12-12T17:38:50.208Z,9.20
2018-12-12T17:41:17.619Z,9.20
2018-12-12T17:43:45.118Z,9.20
2018-12-12T17:46:12.539Z,9.30
2018-12-12T17:48:40.029Z,9.20
2018-12-12T17:51:07.562Z,9.30
2018-12-12T17:53:35.045Z,9.30
2018-12-12T17:56:02.462Z,9.30
2018-12-12T17:58:29.886Z,9.30
2018-12-12T18:00:57.370Z,9.30
2018-12-12T18:03:24.817Z,9.30
2018-12-12T18:05:52.261Z,9.30
2018-12-12T18:08:19.687Z,9.20
2018-12-12T18:10:47.105Z,9.20
2018-12-12T18:13:14.592Z,9.30
2018-12-12T18:15:42.062Z,9.30
2018-12-12T18:18:09.500Z,9.30
2018-12-12T18:20:37.276Z,9.30
2018-12-12T18:23:04.743Z,9.30
2018-12-12T18:25:32.169Z,9.30
2018-12-12T18:27:59.781Z,9.30
2018-12-12T18:30:27.286Z,9.40
2018-12-12T18:32:56.396Z,9.30
2018-12-12T18:35:23.989Z,9.20
2018-12-12T18:37:51.423Z,9.30
2018-12-12T18:40:18.995Z,9.30
2018-12-12T18:42:46.550Z,9.30
2018-12-12T18:45:13.994Z,9.20
2018-12-12T18:47:41.471Z,9.30
2018-12-12T18:50:08.950Z,9.30
2018-12-12T18:52:37.268Z,9.40
2018-12-12T18:55:04.751Z,9.30
2018-12-12T18:57:32.210Z,9.30
2018-12-12T18:59:59.683Z,9.30
2018-12-12T19:02:27.115Z,9.40
2018-12-12T19:04:54.544Z,9.40
2018-12-12T19:07:21.994Z,9.40
2018-12-12T19:09:49.519Z,9.40
2018-12-12T19:12:16.959Z,9.40
2018-12-12T19:15:03.742Z,9.40
2018-12-12T19:17:31.251Z,9.40
2018-12-12T19:19:58.806Z,9.30
2018-12-12T19:22:26.357Z,9.30
2018-12-12T19:24:53.918Z,9.30
2018-12-12T19:27:21.373Z,9.30
2018-12-12T19:29:48.830Z,9.30
2018-12-12T19:32:16.275Z,9.20
2018-12-12T19:34:49.730Z,9.30
2018-12-12T19:37:13.333Z,9.40
2018-12-12T19:39:40.788Z,9.40
2018-12-12T19:42:08.209Z,9.30
2018-12-12T19:44:35.735Z,9.30
2018-12-12T19:47:03.294Z,9.30
2018-12-12T19:49:30.723Z,9.20
2018-12-12T19:51:58.147Z,9.30
2018-12-12T19:54:25.590Z,9.20
2018-12-12T19:56:53.014Z,9.20
2018-12-12T19:59:20.500Z,9.20
2018-12-12T20:01:48.052Z,9.30
2018-12-12T20:04:15.474Z,9.30
2018-12-12T20:06:42.922Z,9.30
2018-12-12T20:09:10.347Z,9.20
2018-12-12T20:11:37.865Z,9.30
2018-12-12T20:14:05.314Z,9.30
2018-12-12T20:16:32.965Z,9.40
2018-12-12T20:19:01.374Z,9.30
2018-12-12T20:21:28.926Z,9.30
2018-12-12T20:23:57.353Z,9.40
2018-12-12T20:26:24.934Z,9.40
2018-12-12T20:28:52.480Z,9.30
2018-12-12T20:31:19.925Z,9.20
2018-12-12T20:33:47.428Z,9.10
2018-12-12T20:36:14.944Z,9.20
2018-12-12T20:38:42.461Z,9.20
2018-12-12T20:41:09.920Z,9.20
2018-12-12T20:43:37.686Z,9.30
2018-12-12T20:46:05.152Z,9.30
2018-12-12T20:48:32.655Z,9.30
2018-12-12T20:51:00.069Z,9.30
2018-12-12T20:53:27.618Z,9.30
2018-12-12T20:55:55.065Z,9.20
2018-12-12T20:58:22.514Z,9.30
2018-12-12T21:00:49.939Z,9.20
2018-12-12T21:03:17.506Z,9.20
2018-12-12T21:05:45.007Z,9.30
2018-12-12T21:08:12.457Z,9.20
2018-12-12T21:10:39.930Z,9.20
2018-12-12T21:13:07.481Z,9.10
2018-12-12T21:15:34.938Z,9.10
2018-12-12T21:18:02.372Z,9.20
2018-12-12T21:20:29.861Z,9.10
2018-12-12T21:22:57.400Z,9.10
2018-12-12T21:25:26.098Z,9.20
2018-12-12T21:27:53.526Z,9.20
2018-12-12T21:30:21.015Z,9.10
2018-12-12T21:32:48.444Z,9.10
2018-12-12T21:35:15.866Z,9.10
2018-12-12T21:37:43.281Z,9.10
2018-12-12T21:40:10.743Z,9.10
2018-12-12T21:42:38.178Z,9.10
2018-12-12T21:45:05.662Z,9.00
2018-12-12T21:47:33.174Z,9.00
2018-12-12T21:50:00.602Z,9.00
2018-12-12T21:52:28.030Z,8.90
2018-12-12T21:54:55.461Z,9.00
2018-12-12T21:57:22.882Z,9.00
2018-12-12T21:59:50.341Z,8.90
2018-12-12T22:02:17.870Z,8.90
2018-12-12T22:04:45.308Z,8.90
2018-12-12T22:07:12.854Z,8.80
2018-12-12T22:09:40.279Z,8.80
2018-12-12T22:12:07.771Z,8.80
2018-12-12T22:14:35.166Z,8.80
2018-12-12T22:17:02.592Z,8.80
2018-12-12T22:19:30.017Z,8.70
2018-12-12T22:21:57.448Z,8.70
2018-12-12T22:24:24.911Z,8.70
2018-12-12T22:26:52.356Z,8.70
2018-12-12T22:29:19.757Z,8.70
2018-12-12T22:31:47.192Z,8.80
2018-12-12T22:34:14.611Z,8.80
2018-12-12T22:36:42.149Z,8.80
2018-12-12T22:39:09.618Z,8.90
2018-12-12T22:41:38.004Z,8.90
2018-12-12T22:44:05.465Z,8.90
2018-12-12T22:46:32.901Z,8.90
2018-12-12T22:49:00.392Z,8.90
2018-12-12T22:51:27.831Z,8.90
2018-12-12T22:53:55.257Z,9.00
2018-12-12T22:56:22.698Z,8.90
2018-12-12T22:58:50.130Z,8.80
2018-12-12T23:01:22.290Z,8.90
2018-12-12T23:03:49.709Z,8.80
2018-12-12T23:06:20.399Z,8.90
2018-12-12T23:08:46.591Z,8.90
2018-12-12T23:11:14.023Z,8.90
2018-12-12T23:13:41.470Z,8.90
2018-12-12T23:16:08.984Z,9.00
2018-12-12T23:18:36.428Z,9.00
2018-12-12T23:21:03.873Z,8.90
2018-12-12T23:23:31.322Z,8.90
2018-12-12T23:25:58.801Z,8.90
2018-12-12T23:28:26.229Z,9.00
2018-12-12T23:30:53.699Z,9.00
2018-12-12T23:33:21.123Z,9.00
2018-12-12T23:35:48.730Z,9.00
2018-12-12T23:38:16.185Z,8.90
2018-12-12T23:40:43.639Z,8.90
2018-12-12T23:43:11.061Z,9.00
2018-12-12T23:45:38.501Z,9.00
2018-12-12T23:48:06.015Z,9.00
2018-12-12T23:50:33.462Z,9.00
2018-12-12T23:53:00.884Z,9.00
2018-12-12T23:55:28.340Z,9.00
2018-12-12T23:57:55.851Z,9.00
